Time,TemperatureF,DewpointF,PressureIn,WindDirection,WindDirectionDegrees,WindSpeedMPH,WindSpeedGustMPH,Humidity,HourlyPrecipIn,Conditions,Clouds,dailyrainin,SoftwareType,DateUTC
2013-02-12 02:30:00,40.0,-99.9,-100.00,NW,320,8.0,9.0,-999,-99.99,,,-99.99,,2013-02-12 08:30:00,
2013-02-12 03:22:00,40.0,-99.9,-100.00,NW,320,8.0,9.0,-999,-99.99,,,-99.99,,2013-02-12 09:22:00,
2013-02-12 06:30:00,37.0,-99.9,-100.00,NW,314,16.0,16.0,-999,-99.99,,,-99.99,,2013-02-12 12:30:00,
2013-02-12 07:22:00,37.0,-99.9,-100.00,NW,314,16.0,16.0,-999,-99.99,,,-99.99,,2013-02-12 13:22:00,
2013-02-12 10:30:00,40.0,-99.9,-100.00,NW,305,24.0,33.0,-999,-99.99,,,-99.99,,2013-02-12 16:30:00,
2013-02-12 11:22:00,40.0,-99.9,-100.00,NW,305,24.0,33.0,-999,-99.99,,,-99.99,,2013-02-12 17:22:00,
2013-02-12 12:30:00,49.0,-99.9,-100.00,WNW,292,4.0,32.0,-999,-99.99,,,-99.99,,2013-02-12 18:30:00,
2013-02-12 12:52:00,45.0,-99.9,-100.00,WNW,292,24.0,31.0,-999,-99.99,,,-99.99,,2013-02-12 18:52:00,
2013-02-12 13:02:00,49.0,-99.9,-100.00,WNW,292,4.0,32.0,-999,-99.99,,,-99.99,,2013-02-12 19:02:00,
2013-02-12 13:11:00,49.0,-99.9,-100.00,WNW,292,4.0,32.0,-999,-99.99,,,-99.99,,2013-02-12 19:11:00,
2013-02-12 13:22:00,49.0,-99.9,-100.00,WNW,292,4.0,32.0,-999,-99.99,,,-99.99,,2013-02-12 19:22:00,
2013-02-12 16:30:00,50.0,-99.9,-100.00,NW,310,22.0,27.0,-999,-99.99,,,-99.99,,2013-02-12 22:30:00,
2013-02-12 17:02:00,50.0,-99.9,-100.00,NW,310,22.0,27.0,-999,-99.99,,,-99.99,,2013-02-12 23:02:00,
2013-02-12 17:12:00,50.0,-99.9,-100.00,NW,310,22.0,27.0,-999,-99.99,,,-99.99,,2013-02-12 23:12:00,
2013-02-12 17:22:00,50.0,-99.9,-100.00,NW,310,22.0,27.0,-999,-99.99,,,-99.99,,2013-02-12 23:22:00,
2013-02-12 20:30:00,37.0,-99.9,-100.00,North,353,7.0,7.0,-999,-99.99,,,-99.99,,2013-02-13 02:30:00,
2013-02-12 21:02:00,37.0,-99.9,-100.00,North,353,7.0,7.0,-999,-99.99,,,-99.99,,2013-02-13 03:02:00,
2013-02-12 21:12:00,37.0,-99.9,-100.00,North,353,7.0,7.0,-999,-99.99,,,-99.99,,2013-02-13 03:12:00,
2013-02-12 21:22:00,37.0,-99.9,-100.00,North,353,7.0,7.0,-999,-99.99,,,-99.99,,2013-02-13 03:22:00,
2013-02-12 23:02:00,32.0,-99.9,-100.00,WNW,300,6.0,6.0,-999,-99.99,,,-99.99,,2013-02-13 05:02:00,
2013-02-12 23:12:00,32.0,-99.9,-100.00,WNW,300,6.0,6.0,-999,-99.99,,,-99.99,,2013-02-13 05:12:00,
2013-02-12 23:22:00,32.0,-99.9,-100.00,WNW,300,6.0,6.0,-999,-99.99,,,-99.99,,2013-02-13 05:22:00,